createdAt,value
2023-02-13T00:00:45.697Z,6.08
2023-02-13T00:03:13.879Z,6.10
2023-02-13T00:05:42.648Z,6.08
2023-02-13T00:08:10.691Z,6.04
2023-02-13T00:10:39.314Z,6.03
2023-02-13T00:13:07.486Z,5.99
2023-02-13T00:15:35.367Z,5.99
2023-02-13T00:18:03.863Z,6.00
2023-02-13T00:20:31.954Z,6.01
2023-02-13T00:23:00.873Z,6.04
2023-02-13T00:25:29.387Z,6.07
2023-02-13T00:27:57.377Z,6.08
2023-02-13T00:30:25.388Z,6.10
2023-02-13T00:32:53.324Z,6.09
2023-02-13T00:35:21.668Z,6.10
2023-02-13T00:37:50.549Z,6.16
2023-02-13T00:40:18.820Z,6.15
2023-02-13T00:42:46.751Z,6.12
2023-02-13T00:45:15.107Z,6.12
2023-02-13T00:47:43.224Z,6.14
2023-02-13T00:50:12.499Z,6.14
2023-02-13T00:52:41.259Z,6.11
2023-02-13T00:55:10.398Z,6.06
2023-02-13T00:57:38.461Z,6.05
2023-02-13T01:00:10.634Z,6.04
2023-02-13T01:02:38.459Z,6.10
2023-02-13T01:05:08.593Z,6.14
2023-02-13T01:07:36.728Z,6.18
2023-02-13T01:10:05.348Z,6.19
2023-02-13T01:12:33.641Z,6.20
2023-02-13T01:15:01.297Z,6.25
2023-02-13T01:17:28.996Z,6.24
2023-02-13T01:19:57.597Z,6.24
2023-02-13T01:22:25.841Z,6.26
2023-02-13T01:24:54.436Z,6.20
2023-02-13T01:27:22.488Z,6.24
2023-02-13T01:29:50.865Z,6.20
2023-02-13T01:32:18.990Z,6.13
2023-02-13T01:34:47.171Z,6.10
2023-02-13T01:37:14.865Z,6.14
2023-02-13T01:39:42.719Z,6.17
2023-02-13T01:42:23.619Z,6.15
2023-02-13T01:45:02.374Z,6.10
2023-02-13T01:47:32.465Z,6.09
2023-02-13T01:50:12.792Z,6.08
2023-02-13T01:52:43.688Z,6.04
2023-02-13T01:55:10.868Z,6.02
2023-02-13T01:57:38.471Z,5.96
2023-02-13T02:00:11.255Z,5.92
2023-02-13T02:02:43.178Z,5.91
2023-02-13T02:05:17.063Z,5.91
2023-02-13T02:07:45.222Z,5.90
2023-02-13T02:10:14.749Z,5.87
2023-02-13T02:12:48.766Z,5.76
2023-02-13T02:15:16.418Z,5.68
2023-02-13T02:17:45.232Z,5.65
2023-02-13T02:21:05.970Z,5.55
2023-02-13T02:23:32.979Z,5.43
2023-02-13T02:26:03.005Z,5.38
2023-02-13T02:28:47.957Z,5.30
2023-02-13T02:31:39.741Z,5.29
2023-02-13T02:34:44.572Z,5.36
2023-02-13T02:37:28.277Z,5.49
2023-02-13T02:40:18.004Z,5.58
2023-02-13T02:43:22.464Z,5.68
2023-02-13T02:46:03.666Z,5.73
2023-02-13T02:48:48.527Z,5.75
2023-02-13T02:51:34.325Z,5.68
2023-02-13T02:54:43.058Z,5.62
2023-02-13T02:57:12.317Z,5.55
2023-02-13T02:59:58.890Z,5.46
2023-02-13T03:02:49.545Z,5.35
2023-02-13T03:05:41.993Z,5.32
2023-02-13T03:08:08.824Z,5.32
2023-02-13T03:10:55.742Z,5.37
2023-02-13T03:13:52.711Z,5.49
2023-02-13T03:16:39.682Z,5.46
2023-02-13T03:19:25.009Z,5.40
2023-02-13T03:22:18.795Z,5.36
2023-02-13T03:25:07.890Z,5.29
2023-02-13T03:28:14.259Z,5.26
2023-02-13T03:31:02.053Z,5.21
2023-02-13T03:33:57.229Z,5.25
2023-02-13T03:37:07.139Z,5.19
2023-02-13T03:39:37.351Z,5.11
2023-02-13T03:42:07.226Z,5.08
2023-02-13T03:45:15.194Z,5.05
2023-02-13T03:47:42.551Z,5.05
2023-02-13T03:50:12.169Z,5.07
2023-02-13T03:52:54.476Z,5.07
2023-02-13T03:55:41.773Z,5.06
2023-02-13T03:58:36.641Z,4.96
2023-02-13T04:01:05.360Z,4.82
2023-02-13T04:03:43.650Z,4.80
2023-02-13T04:06:13.757Z,4.82
2023-02-13T04:08:44.095Z,4.81
2023-02-13T04:11:14.963Z,4.80
2023-02-13T04:13:48.608Z,4.79
2023-02-13T04:16:22.836Z,4.74
2023-02-13T04:18:50.973Z,4.76
2023-02-13T04:23:54.297Z,4.74
2023-02-13T04:26:22.092Z,4.68
2023-02-13T04:28:50.032Z,4.61
2023-02-13T04:31:18.149Z,4.50
2023-02-13T04:33:46.159Z,4.48
2023-02-13T04:36:14.426Z,4.44
2023-02-13T04:38:42.025Z,4.38
2023-02-13T04:41:10.452Z,4.30
2023-02-13T04:43:38.238Z,4.20
2023-02-13T04:46:06.863Z,4.13
2023-02-13T04:48:38.718Z,4.02
2023-02-13T04:51:07.127Z,3.96
2023-02-13T04:53:34.789Z,4.03
2023-02-13T04:56:03.519Z,4.04
2023-02-13T04:58:32.323Z,3.98
2023-02-13T05:01:00.674Z,3.87
2023-02-13T05:03:28.657Z,3.78
2023-02-13T05:05:56.915Z,3.69
2023-02-13T05:08:24.936Z,3.56
2023-02-13T05:10:52.783Z,3.47
2023-02-13T05:13:21.789Z,3.39
2023-02-13T05:15:50.539Z,3.38
2023-02-13T05:18:18.507Z,3.39
2023-02-13T05:21:06.475Z,3.36
2023-02-13T05:23:34.906Z,3.19
2023-02-13T05:26:03.010Z,3.07
2023-02-13T05:28:49.285Z,3.07
2023-02-13T05:31:17.687Z,3.10
2023-02-13T05:33:45.432Z,3.06
2023-02-13T05:36:13.189Z,3.03
2023-02-13T05:38:41.425Z,2.98
2023-02-13T05:41:09.309Z,2.98
2023-02-13T05:43:37.699Z,2.97
2023-02-13T05:46:09.371Z,2.92
2023-02-13T05:48:37.752Z,2.89
2023-02-13T05:51:05.956Z,2.86
2023-02-13T05:53:37.042Z,2.89
2023-02-13T05:56:05.920Z,2.88
2023-02-13T05:58:33.461Z,2.87
2023-02-13T06:01:01.351Z,2.79
2023-02-13T06:03:30.107Z,2.73
2023-02-13T06:05:58.401Z,2.64
2023-02-13T06:08:27.031Z,2.57
2023-02-13T06:10:55.282Z,2.59
2023-02-13T06:13:23.804Z,2.59
2023-02-13T06:15:52.180Z,2.67
2023-02-13T06:18:20.323Z,2.64
2023-02-13T06:20:48.631Z,2.64
2023-02-13T06:23:17.049Z,2.65
2023-02-13T06:25:45.628Z,2.76
2023-02-13T06:28:13.696Z,2.77
2023-02-13T06:30:41.521Z,2.77
2023-02-13T06:33:08.384Z,2.81
2023-02-13T06:35:36.956Z,2.85
2023-02-13T06:38:05.272Z,2.92
2023-02-13T06:40:33.281Z,2.90
2023-02-13T06:43:00.904Z,2.82
2023-02-13T06:45:28.980Z,2.73
2023-02-13T06:47:57.025Z,2.73
2023-02-13T06:50:25.589Z,2.77
2023-02-13T06:52:53.082Z,2.80
2023-02-13T06:55:21.108Z,2.84
2023-02-13T06:57:48.824Z,2.89
2023-02-13T07:00:18.286Z,2.92
2023-02-13T07:02:46.437Z,2.98
2023-02-13T07:05:14.374Z,3.06
2023-02-13T07:07:42.847Z,3.18
2023-02-13T07:10:12.029Z,3.30
2023-02-13T07:12:39.285Z,3.40
2023-02-13T07:15:08.188Z,3.48
2023-02-13T07:17:36.365Z,3.52
2023-02-13T07:20:05.054Z,3.61
2023-02-13T07:22:33.682Z,3.65
2023-02-13T07:25:01.545Z,3.72
2023-02-13T07:27:29.604Z,3.78
2023-02-13T07:29:57.697Z,3.90
2023-02-13T07:32:25.769Z,3.97
2023-02-13T07:35:01.595Z,4.04
2023-02-13T07:37:30.617Z,4.15
2023-02-13T07:39:58.387Z,4.25
2023-02-13T07:42:26.899Z,4.35
2023-02-13T07:44:55.025Z,4.46
2023-02-13T07:47:23.046Z,4.57
2023-02-13T07:49:51.335Z,4.64
2023-02-13T07:52:19.411Z,4.72
2023-02-13T07:54:51.486Z,4.82
2023-02-13T07:57:19.264Z,4.86
2023-02-13T07:59:47.936Z,4.88
2023-02-13T08:02:16.485Z,4.87
2023-02-13T08:05:13.022Z,5.03
2023-02-13T08:07:43.489Z,5.15
2023-02-13T08:10:31.245Z,5.28
2023-02-13T08:12:59.620Z,5.39
2023-02-13T08:15:27.450Z,5.54
2023-02-13T08:17:55.930Z,5.71
2023-02-13T08:20:26.718Z,5.79
2023-02-13T08:22:58.147Z,5.89
2023-02-13T08:25:33.114Z,5.99
2023-02-13T08:28:01.572Z,6.08
2023-02-13T08:30:31.223Z,6.15
2023-02-13T08:33:18.809Z,6.31
2023-02-13T08:35:48.504Z,6.43
2023-02-13T08:38:19.058Z,6.63
2023-02-13T08:40:46.935Z,6.76
2023-02-13T08:43:18.455Z,6.85
2023-02-13T08:45:52.077Z,6.98
2023-02-13T08:48:20.083Z,7.16
2023-02-13T08:50:48.309Z,7.24
2023-02-13T08:53:16.462Z,7.34
2023-02-13T08:55:44.621Z,7.47
2023-02-13T08:58:12.819Z,7.57
2023-02-13T09:00:41.047Z,7.73
2023-02-13T09:03:10.495Z,7.89
2023-02-13T09:05:38.911Z,8.00
2023-02-13T09:08:08.202Z,8.08
2023-02-13T09:10:36.305Z,8.17
2023-02-13T09:13:04.676Z,8.28
2023-02-13T09:15:32.762Z,8.33
2023-02-13T09:18:01.178Z,8.35
2023-02-13T09:20:29.028Z,8.49
2023-02-13T09:22:57.157Z,8.65
2023-02-13T09:25:24.862Z,8.82
2023-02-13T09:27:52.893Z,8.89
2023-02-13T09:30:24.192Z,9.02
2023-02-13T09:32:52.990Z,9.10
2023-02-13T09:35:20.589Z,9.22
2023-02-13T09:37:48.763Z,9.32
2023-02-13T09:40:23.990Z,9.43
2023-02-13T09:43:17.272Z,9.53
2023-02-13T09:45:45.236Z,9.63
2023-02-13T09:48:19.080Z,9.77
2023-02-13T09:50:46.645Z,9.81
2023-02-13T09:53:20.683Z,9.97
2023-02-13T09:55:53.101Z,10.05
2023-02-13T09:58:27.365Z,10.14
2023-02-13T10:00:56.462Z,10.24
2023-02-13T10:03:30.552Z,10.31
2023-02-13T10:06:58.085Z,10.41
2023-02-13T10:09:36.651Z,10.58
2023-02-13T10:12:22.293Z,10.65
2023-02-13T10:15:11.495Z,10.78
2023-02-13T10:17:51.110Z,11.01
2023-02-13T10:20:40.439Z,11.00
2023-02-13T10:23:29.474Z,11.01
2023-02-13T10:26:42.714Z,11.17
2023-02-13T10:29:32.878Z,11.29
2023-02-13T10:32:01.351Z,11.43
2023-02-13T10:34:31.357Z,11.49
2023-02-13T10:36:58.642Z,11.52
2023-02-13T10:39:29.522Z,11.63
2023-02-13T10:41:59.440Z,11.63
2023-02-13T10:45:00.981Z,11.66
2023-02-13T10:47:48.684Z,11.69
2023-02-13T10:50:24.335Z,11.68
2023-02-13T10:53:15.720Z,11.70
2023-02-13T10:56:04.293Z,11.88
2023-02-13T10:58:43.262Z,12.00
2023-02-13T11:01:25.967Z,12.11
2023-02-13T11:04:05.512Z,12.13
2023-02-13T11:06:33.884Z,12.18
2023-02-13T11:09:07.341Z,12.26
2023-02-13T11:11:36.386Z,12.30
2023-02-13T11:14:22.990Z,12.49
2023-02-13T11:17:01.959Z,12.70
2023-02-13T11:19:39.889Z,12.75
2023-02-13T11:22:33.536Z,12.87
2023-02-13T11:25:13.502Z,12.98
2023-02-13T11:27:41.041Z,13.07
2023-02-13T11:30:12.542Z,13.11
2023-02-13T11:32:40.901Z,13.18
2023-02-13T11:35:27.526Z,13.15
2023-02-13T11:38:24.595Z,13.42
2023-02-13T11:41:12.703Z,13.52
2023-02-13T11:43:50.615Z,13.66
2023-02-13T11:46:25.380Z,13.74
2023-02-13T11:49:02.715Z,13.96
2023-02-13T11:51:42.477Z,14.12
2023-02-13T11:54:29.395Z,14.20
2023-02-13T11:57:17.500Z,14.36
2023-02-13T11:59:45.493Z,14.60
2023-02-13T12:02:20.538Z,14.76
2023-02-13T12:04:49.805Z,14.93
2023-02-13T12:07:24.514Z,15.10
2023-02-13T12:10:12.251Z,15.28
2023-02-13T12:12:45.473Z,15.38
2023-02-13T12:15:32.586Z,15.57
2023-02-13T12:18:23.810Z,15.60
2023-02-13T12:21:22.690Z,15.87
2023-02-13T12:24:04.209Z,15.86
2023-02-13T12:26:45.183Z,16.18
2023-02-13T12:29:22.039Z,16.37
2023-02-13T12:32:07.216Z,16.52
2023-02-13T12:34:52.387Z,16.79
2023-02-13T12:37:40.528Z,17.08
2023-02-13T12:40:24.892Z,17.26
2023-02-13T12:43:04.519Z,17.63
2023-02-13T12:45:37.676Z,17.88
2023-02-13T12:48:10.438Z,17.64
2023-02-13T12:50:53.958Z,17.91
2023-02-13T12:53:40.712Z,17.99
2023-02-13T12:56:16.838Z,18.04
2023-02-13T12:59:16.613Z,18.03
2023-02-13T13:01:49.505Z,18.15
2023-02-13T13:04:25.458Z,17.98
2023-02-13T13:07:11.822Z,17.88
2023-02-13T13:09:50.776Z,18.21
2023-02-13T13:12:54.190Z,18.35
2023-02-13T13:15:33.610Z,18.53
2023-02-13T13:18:07.506Z,18.62
2023-02-13T13:20:37.420Z,18.72
2023-02-13T13:23:11.879Z,18.78
2023-02-13T13:25:45.829Z,18.82
2023-02-13T13:28:22.240Z,18.96
2023-02-13T13:30:53.065Z,19.23
2023-02-13T13:33:22.240Z,19.07
2023-02-13T13:36:17.903Z,19.49
2023-02-13T13:39:07.292Z,19.58
2023-02-13T13:41:52.111Z,19.59
2023-02-13T13:44:49.532Z,19.23
2023-02-13T13:48:01.465Z,19.33
2023-02-13T13:50:30.637Z,19.50
2023-02-13T13:53:28.383Z,19.46
2023-02-13T13:56:01.121Z,19.26
2023-02-13T13:58:41.510Z,19.37
2023-02-13T14:01:23.584Z,19.34
2023-02-13T14:03:51.517Z,19.74
2023-02-13T14:06:23.874Z,19.93
2023-02-13T14:09:32.846Z,20.00
2023-02-13T14:12:02.490Z,19.97
2023-02-13T14:14:29.145Z,19.87
2023-02-13T14:16:59.894Z,19.26
2023-02-13T14:19:27.253Z,18.92
2023-02-13T14:22:00.929Z,18.72
2023-02-13T14:24:29.084Z,18.78
2023-02-13T14:27:05.108Z,18.40
2023-02-13T14:29:33.630Z,18.21
2023-02-13T14:32:03.433Z,18.00
2023-02-13T14:34:33.331Z,17.92
2023-02-13T14:37:21.174Z,17.73
2023-02-13T14:40:16.366Z,17.02
2023-02-13T14:43:29.628Z,17.05
2023-02-13T14:45:58.685Z,17.26
2023-02-13T14:48:36.602Z,17.41
2023-02-13T14:51:04.236Z,17.60
2023-02-13T14:53:34.822Z,17.68
2023-02-13T14:56:28.147Z,17.56
2023-02-13T14:59:04.705Z,17.58
2023-02-13T15:01:38.034Z,17.92
2023-02-13T15:04:13.319Z,18.51
2023-02-13T15:06:44.753Z,19.07
2023-02-13T15:09:35.647Z,19.29
2023-02-13T15:12:03.677Z,19.60
2023-02-13T15:14:38.067Z,19.81
2023-02-13T15:17:27.607Z,19.70
2023-02-13T15:19:55.748Z,19.17
2023-02-13T15:22:58.794Z,18.97
2023-02-13T15:25:41.643Z,18.46
2023-02-13T15:28:09.957Z,18.34
2023-02-13T15:30:38.626Z,18.10
2023-02-13T15:33:19.363Z,17.70
2023-02-13T15:35:47.470Z,17.17
2023-02-13T15:38:24.323Z,16.93
2023-02-13T15:40:52.766Z,16.82
2023-02-13T15:43:33.544Z,16.56
2023-02-13T15:46:05.942Z,16.39
2023-02-13T15:48:34.645Z,16.54
2023-02-13T15:51:02.546Z,16.99
2023-02-13T15:53:31.234Z,17.06
2023-02-13T15:56:03.558Z,17.19
2023-02-13T15:58:32.088Z,17.43
2023-02-13T16:01:07.706Z,17.91
2023-02-13T16:03:35.348Z,18.07
2023-02-13T16:06:02.635Z,17.71
2023-02-13T16:08:29.619Z,17.72
2023-02-13T16:11:29.677Z,18.30
2023-02-13T16:14:21.416Z,18.65
2023-02-13T16:17:03.283Z,18.28
2023-02-13T16:20:01.062Z,17.46
2023-02-13T16:22:34.121Z,16.57
2023-02-13T16:25:04.874Z,15.72
2023-02-13T16:27:32.704Z,15.14
2023-02-13T16:30:01.453Z,14.59
2023-02-13T16:32:34.136Z,14.19
2023-02-13T16:35:57.914Z,13.82
2023-02-13T16:38:31.549Z,13.49
2023-02-13T16:41:00.637Z,13.18
2023-02-13T16:43:33.659Z,13.01
2023-02-13T16:46:15.208Z,12.88
2023-02-13T16:49:03.648Z,12.74
2023-02-13T16:51:30.361Z,12.58
2023-02-13T16:54:01.987Z,12.48
2023-02-13T16:56:29.077Z,12.38
2023-02-13T16:59:26.417Z,12.25
2023-02-13T17:02:13.519Z,12.12
2023-02-13T17:04:42.339Z,12.04
2023-02-13T17:07:13.034Z,11.97
2023-02-13T17:09:41.121Z,11.82
2023-02-13T17:12:17.338Z,11.74
2023-02-13T17:14:45.029Z,11.66
2023-02-13T17:17:17.372Z,11.63
2023-02-13T17:19:44.532Z,11.56
2023-02-13T17:22:37.284Z,11.49
2023-02-13T17:25:26.626Z,11.38
2023-02-13T17:27:57.034Z,11.36
2023-02-13T17:30:29.233Z,11.26
2023-02-13T17:33:04.648Z,11.19
2023-02-13T17:35:33.169Z,11.19
2023-02-13T17:38:01.066Z,11.11
2023-02-13T17:40:30.360Z,11.04
2023-02-13T17:42:58.983Z,10.97
2023-02-13T17:45:28.257Z,10.87
2023-02-13T17:47:57.851Z,10.79
2023-02-13T17:50:28.228Z,10.74
2023-02-13T17:52:55.225Z,10.69
2023-02-13T17:55:29.750Z,10.61
2023-02-13T17:57:57.782Z,10.50
2023-02-13T18:00:28.006Z,10.31
2023-02-13T18:02:55.444Z,10.11
2023-02-13T18:05:23.140Z,10.10
2023-02-13T18:07:51.208Z,10.09
2023-02-13T18:10:25.782Z,10.05
2023-02-13T18:12:53.182Z,9.90
2023-02-13T18:15:21.723Z,9.72
2023-02-13T18:17:49.847Z,9.47
2023-02-13T18:20:19.046Z,9.42
2023-02-13T18:22:47.365Z,9.31
2023-02-13T18:25:14.945Z,9.19
2023-02-13T18:27:43.283Z,9.14
2023-02-13T18:30:12.760Z,9.13
2023-02-13T18:32:40.412Z,9.12
2023-02-13T18:35:09.902Z,9.16
2023-02-13T18:37:39.351Z,9.11
2023-02-13T18:40:10.832Z,8.96
2023-02-13T18:42:39.122Z,8.75
2023-02-13T18:45:09.213Z,8.76
2023-02-13T18:47:37.248Z,8.71
2023-02-13T18:50:05.452Z,8.72
2023-02-13T18:52:33.452Z,8.64
2023-02-13T18:55:01.712Z,8.51
2023-02-13T18:57:29.811Z,8.37
2023-02-13T18:59:57.654Z,8.34
2023-02-13T19:02:25.791Z,8.44
2023-02-13T19:04:53.334Z,8.51
2023-02-13T19:07:20.956Z,8.52
2023-02-13T19:09:49.056Z,8.48
2023-02-13T19:12:17.268Z,8.45
2023-02-13T19:14:45.259Z,8.34
2023-02-13T19:17:13.008Z,8.18
2023-02-13T19:19:41.045Z,8.14
2023-02-13T19:22:09.310Z,8.07
2023-02-13T19:24:37.470Z,8.02
2023-02-13T19:27:05.243Z,7.97
2023-02-13T19:29:33.860Z,7.88
2023-02-13T19:32:01.984Z,7.87
2023-02-13T19:34:30.614Z,7.85
2023-02-13T19:36:58.850Z,7.79
2023-02-13T19:39:26.914Z,7.79
2023-02-13T19:41:55.198Z,7.70
2023-02-13T19:44:23.473Z,7.60
2023-02-13T19:46:51.832Z,7.62
2023-02-13T19:49:22.698Z,7.57
2023-02-13T19:51:50.506Z,7.59
2023-02-13T19:54:38.488Z,7.51
2023-02-13T19:57:05.999Z,7.46
2023-02-13T19:59:33.905Z,7.37
2023-02-13T20:02:01.844Z,7.35
2023-02-13T20:04:29.502Z,7.41
2023-02-13T20:06:58.582Z,7.50
2023-02-13T20:09:27.916Z,7.45
2023-02-13T20:11:56.202Z,7.31
2023-02-13T20:14:25.304Z,7.29
2023-02-13T20:16:53.524Z,7.31
2023-02-13T20:19:21.918Z,7.29
2023-02-13T20:21:49.848Z,7.19
2023-02-13T20:24:18.046Z,7.17
2023-02-13T20:26:46.634Z,7.07
2023-02-13T20:29:14.277Z,6.90
2023-02-13T20:31:42.046Z,6.85
2023-02-13T20:34:09.894Z,6.76
2023-02-13T20:36:37.480Z,6.77
2023-02-13T20:39:06.536Z,6.77
2023-02-13T20:41:35.691Z,6.77
2023-02-13T20:44:05.274Z,6.73
2023-02-13T20:46:34.444Z,6.72
2023-02-13T20:49:02.693Z,6.69
2023-02-13T20:51:30.365Z,6.73
2023-02-13T20:54:00.014Z,6.67
2023-02-13T20:56:28.614Z,6.56
2023-02-13T20:58:57.306Z,6.51
2023-02-13T21:01:26.862Z,6.38
2023-02-13T21:03:55.054Z,6.25
2023-02-13T21:06:30.445Z,6.24
2023-02-13T21:08:57.741Z,6.15
2023-02-13T21:11:28.358Z,6.14
2023-02-13T21:13:57.690Z,6.14
2023-02-13T21:16:28.059Z,6.18
2023-02-13T21:18:56.638Z,6.28
2023-02-13T21:21:24.702Z,6.33
2023-02-13T21:23:56.311Z,6.39
2023-02-13T21:26:24.546Z,6.39
2023-02-13T21:28:52.850Z,6.32
2023-02-13T21:31:25.753Z,6.29
2023-02-13T21:33:53.060Z,6.23
2023-02-13T21:36:21.645Z,6.17
2023-02-13T21:38:51.164Z,6.10
2023-02-13T21:41:19.551Z,6.12
2023-02-13T21:43:48.236Z,6.11
2023-02-13T21:46:23.773Z,5.99
2023-02-13T21:49:02.148Z,5.86
2023-02-13T21:51:30.980Z,5.70
2023-02-13T21:53:58.762Z,5.51
2023-02-13T21:56:28.105Z,5.47
2023-02-13T21:58:56.944Z,5.47
2023-02-13T22:01:46.670Z,5.47
2023-02-13T22:04:15.404Z,5.48
2023-02-13T22:06:43.564Z,5.45
2023-02-13T22:09:13.764Z,5.46
2023-02-13T22:11:40.918Z,5.51
2023-02-13T22:14:12.046Z,5.49
2023-02-13T22:16:39.857Z,5.52
2023-02-13T22:19:08.772Z,5.52
2023-02-13T22:21:42.093Z,5.53
2023-02-13T22:24:10.079Z,5.45
2023-02-13T22:26:40.800Z,5.36
2023-02-13T22:29:14.265Z,5.24
2023-02-13T22:31:43.574Z,5.16
2023-02-13T22:34:12.333Z,5.07
2023-02-13T22:36:40.328Z,5.01
2023-02-13T22:39:08.313Z,4.97
2023-02-13T22:41:35.499Z,4.95
2023-02-13T22:44:03.750Z,4.91
2023-02-13T22:46:35.311Z,4.80
2023-02-13T22:49:03.202Z,4.73
2023-02-13T22:51:34.085Z,4.78
2023-02-13T22:54:01.441Z,4.77
2023-02-13T22:56:31.193Z,4.72
2023-02-13T22:58:59.156Z,4.74
2023-02-13T23:01:27.005Z,4.72
2023-02-13T23:03:55.032Z,4.76
2023-02-13T23:06:23.197Z,4.87
2023-02-13T23:08:52.713Z,4.90
2023-02-13T23:11:39.066Z,4.92
2023-02-13T23:14:07.209Z,5.00
2023-02-13T23:16:53.462Z,5.01
2023-02-13T23:19:21.671Z,5.03
2023-02-13T23:21:49.620Z,5.07
2023-02-13T23:24:18.585Z,5.09
2023-02-13T23:26:46.497Z,4.90
2023-02-13T23:29:14.842Z,4.92
2023-02-13T23:31:43.932Z,4.98
2023-02-13T23:34:13.523Z,5.06
2023-02-13T23:36:42.023Z,5.14
2023-02-13T23:39:10.468Z,5.16
2023-02-13T23:41:38.681Z,5.08
2023-02-13T23:44:06.867Z,5.05
2023-02-13T23:46:35.456Z,4.97
2023-02-13T23:49:04.372Z,4.87
2023-02-13T23:51:33.849Z,4.75
2023-02-13T23:54:02.350Z,4.82
2023-02-13T23:56:30.745Z,4.82
2023-02-13T23:58:58.390Z,4.86
